Time;durP1;ratioP1;P1;durP2;ratioP2;P2;SDS_P1;SDS_P2;PMS_P1;PMS_P2;Temp;Humidity;BMP_temperature;BMP_pressure;BME280_temperature;BME280_humidity;BME280_pressure;Samples;Min_cycle;Max_cycle;Signal;HPM_P1;HPM_P2
2023/09/07 00:02:54;;;;;;;18.50;13.40;;;;;;;16.49;100.00;101066.67;180107;1260;46156;-64
2023/09/07 00:07:00;;;;;;;14.70;11.20;;;;;;;16.43;100.00;101065.85;180161;1260;44019;-65
2023/09/07 00:11:12;;;;;;;14.10;11.60;;;;;;;16.38;100.00;101069.14;180289;1260;46031;-65
2023/09/07 00:15:15;;;;;;;15.50;11.60;;;;;;;16.32;100.00;101069.48;180230;1260;44945;-65
2023/09/07 00:19:22;;;;;;;18.00;12.70;;;;;;;16.27;100.00;101070.17;180240;1260;58727;-65
2023/09/07 00:23:35;;;;;;;16.20;12.20;;;;;;;16.16;100.00;101068.77;180277;1260;44786;-64
2023/09/07 00:27:40;;;;;;;15.80;12.30;;;;;;;15.92;100.00;101068.59;180356;1259;45882;-65
2023/09/07 00:31:43;;;;;;;14.00;11.80;;;;;;;15.64;100.00;101065.88;180332;1260;43575;-64
2023/09/07 00:35:48;;;;;;;16.20;12.80;;;;;;;15.46;100.00;101064.78;180281;1260;44698;-64
2023/09/07 00:39:52;;;;;;;14.80;9.90;;;;;;;15.42;100.00;101065.14;180192;1259;57601;-65
2023/09/07 00:43:57;;;;;;;13.50;10.90;;;;;;;15.29;100.00;101067.60;180198;1260;45877;-65
2023/09/07 00:48:00;;;;;;;14.40;11.20;;;;;;;15.25;100.00;101067.77;180236;1259;44892;-65
2023/09/07 00:52:09;;;;;;;16.50;13.00;;;;;;;15.29;100.00;101069.15;180330;1260;44532;-65
2023/09/07 00:56:14;;;;;;;15.50;11.60;;;;;;;15.35;100.00;101062.09;180036;1260;45865;-64
2023/09/07 01:00:20;;;;;;;11.90;10.70;;;;;;;15.42;100.00;101060.49;180261;1260;58571;-65
2023/09/07 01:04:24;;;;;;;12.60;10.00;;;;;;;15.47;100.00;101057.38;180343;1260;43892;-65
2023/09/07 01:08:39;;;;;;;14.20;11.10;;;;;;;15.50;100.00;101062.10;180099;1260;46109;-65
2023/09/07 01:12:42;;;;;;;14.20;9.70;;;;;;;15.52;100.00;101064.95;180196;1260;46010;-65
2023/09/07 01:16:46;;;;;;;11.80;10.50;;;;;;;15.50;100.00;101066.05;179994;1260;43570;-65
2023/09/07 01:20:51;;;;;;;13.80;11.00;;;;;;;15.48;100.00;101068.00;180240;1260;58415;-65
2023/09/07 01:24:55;;;;;;;15.30;12.60;;;;;;;15.47;100.00;101065.25;180180;1260;45894;-65
2023/09/07 01:29:01;;;;;;;18.40;12.80;;;;;;;15.32;100.00;101059.65;180304;1260;43654;-65
2023/09/07 01:33:05;;;;;;;12.90;11.60;;;;;;;15.10;100.00;101061.17;180242;1260;44985;-65
2023/09/07 01:37:09;;;;;;;14.50;12.80;;;;;;;14.86;100.00;101065.25;180168;1260;43868;-64
2023/09/07 01:41:12;;;;;;;12.90;11.40;;;;;;;14.76;100.00;101060.24;180343;1260;58400;-64
2023/09/07 01:45:16;;;;;;;18.90;12.70;;;;;;;14.71;100.00;101061.55;180265;1260;43617;-65
2023/09/07 01:49:19;;;;;;;20.10;13.90;;;;;;;14.66;100.00;101069.08;180092;1260;45864;-65
2023/09/07 01:53:24;;;;;;;20.40;15.30;;;;;;;14.67;100.00;101063.08;180253;1260;44889;-65
2023/09/07 01:57:29;;;;;;;12.90;10.30;;;;;;;14.74;100.00;101066.68;180175;1260;43787;-63
2023/09/07 02:01:36;;;;;;;12.00;9.50;;;;;;;14.70;100.00;101073.68;180040;1260;58399;-65
2023/09/07 02:05:40;;;;;;;10.10;9.20;;;;;;;14.75;100.00;101070.86;180228;1260;43583;-65
2023/09/07 02:09:55;;;;;;;9.40;7.50;;;;;;;14.80;100.00;101071.70;180204;1260;43585;-65
2023/09/07 02:13:58;;;;;;;9.80;8.30;;;;;;;14.84;100.00;101067.77;180288;1260;43969;-64
2023/09/07 02:18:04;;;;;;;13.70;10.10;;;;;;;14.84;100.00;101068.62;180287;1260;43777;-65
2023/09/07 02:22:38;;;;;;;16.50;13.80;;;;;;;14.80;100.00;101063.08;180104;1260;59213;-64
2023/09/07 02:26:45;;;;;;;15.50;12.60;;;;;;;14.82;100.00;101069.35;180095;1260;46032;-64
2023/09/07 02:31:17;;;;;;;15.40;13.00;;;;;;;14.89;100.00;101068.75;180150;1261;45051;-65
2023/09/07 02:35:20;;;;;;;15.40;12.00;;;;;;;14.94;100.00;101074.16;180286;1260;44076;-65
2023/09/07 02:39:26;;;;;;;16.00;12.30;;;;;;;15.02;100.00;101074.46;180199;1260;43632;-64
2023/09/07 02:43:30;;;;;;;15.00;9.70;;;;;;;14.98;100.00;101071.74;180194;1263;58942;-64
2023/09/07 02:47:33;;;;;;;18.10;11.90;;;;;;;14.79;100.00;101071.61;180034;1260;45033;-65
2023/09/07 02:51:37;;;;;;;14.80;10.60;;;;;;;14.70;100.00;101077.69;180306;1259;43643;-65
2023/09/07 02:55:40;;;;;;;15.70;11.70;;;;;;;14.75;100.00;101077.88;180122;1260;45066;-64
2023/09/07 02:59:46;;;;;;;16.80;12.50;;;;;;;14.74;100.00;101075.04;180247;1262;46013;-65
2023/09/07 03:03:49;;;;;;;15.50;13.00;;;;;;;14.80;100.00;101075.56;180156;1260;58543;-64
2023/09/07 03:07:53;;;;;;;14.50;13.00;;;;;;;14.83;100.00;101077.48;180079;1260;46086;-65
2023/09/07 03:11:57;;;;;;;14.50;10.90;;;;;;;14.80;100.00;101079.56;180204;1259;43578;-65
2023/09/07 03:16:02;;;;;;;21.20;12.50;;;;;;;14.63;100.00;101079.64;180089;1260;45062;-65
2023/09/07 03:20:19;;;;;;;15.40;10.50;;;;;;;14.49;100.00;101078.23;180055;1260;44806;-65
2023/09/07 03:24:23;;;;;;;16.50;11.60;;;;;;;14.35;100.00;101081.33;180206;1260;58407;-64
2023/09/07 03:28:26;;;;;;;12.40;10.00;;;;;;;14.30;100.00;101081.65;180141;1260;46152;-63
2023/09/07 03:32:33;;;;;;;13.10;11.70;;;;;;;14.33;100.00;101080.52;180078;1260;45088;-63
2023/09/07 03:36:37;;;;;;;;;;;;;;;14.33;100.00;101078.34;180141;1260;46096;-65
2023/09/07 03:40:40;;;;;;;15.90;11.50;;;;;;;14.37;100.00;101071.92;179970;1261;45794;-64
2023/09/07 03:44:44;;;;;;;13.60;11.40;;;;;;;14.41;100.00;101073.02;180097;1260;58481;-64
2023/09/07 03:48:48;;;;;;;17.40;11.60;;;;;;;14.38;100.00;101078.08;180045;1260;46100;-64
2023/09/07 03:52:55;;;;;;;19.20;14.60;;;;;;;14.42;100.00;101078.09;180100;1260;43559;-64
2023/09/07 03:56:59;;;;;;;18.50;13.10;;;;;;;14.46;100.00;101075.84;180107;1260;46056;-65
2023/09/07 04:01:04;;;;;;;17.40;13.10;;;;;;;14.48;100.00;101078.70;180157;1260;43787;-64
2023/09/07 04:05:10;;;;;;;19.90;14.30;;;;;;;14.49;100.00;101079.98;180241;1259;58261;-64
2023/09/07 04:09:14;;;;;;;18.90;14.80;;;;;;;14.50;100.00;101086.38;180067;1261;45908;-64
2023/09/07 04:13:20;;;;;;;17.90;14.90;;;;;;;14.51;100.00;101089.84;180001;1259;43546;-65
2023/09/07 04:17:24;;;;;;;18.90;15.20;;;;;;;14.54;100.00;101094.61;179905;1260;44138;-64
2023/09/07 04:21:57;;;;;;;18.60;12.90;;;;;;;14.55;100.00;101092.89;180065;1259;45007;-64
2023/09/07 04:26:08;;;;;;;18.90;15.00;;;;;;;14.59;100.00;101098.44;180085;1260;58916;-64
2023/09/07 04:30:31;;;;;;;21.50;15.30;;;;;;;14.63;100.00;101102.01;180167;1261;45893;-63
2023/09/07 04:34:56;;;;;;;21.80;16.20;;;;;;;14.67;100.00;101103.96;180000;1260;43524;-63
2023/09/07 04:39:00;;;;;;;18.50;16.60;;;;;;;14.67;100.00;101106.09;179899;1261;46057;-64
2023/09/07 04:43:03;;;;;;;18.80;15.10;;;;;;;14.73;100.00;101110.65;180056;1260;43858;-63
2023/09/07 04:47:06;;;;;;;23.50;15.10;;;;;;;15.17;100.00;101110.73;180018;1260;58678;-64
2023/09/07 04:51:12;;;;;;;20.90;14.20;;;;;;;15.77;100.00;101114.04;179976;1264;45976;-63
2023/09/07 04:55:15;;;;;;;20.80;13.90;;;;;;;16.38;100.00;101112.61;180027;1259;43973;-64
2023/09/07 04:59:23;;;;;;;18.60;13.00;;;;;;;16.93;100.00;101113.79;180128;1261;43547;-61
2023/09/07 05:03:28;;;;;;;15.10;13.50;;;;;;;17.52;100.00;101108.27;179287;1259;46135;-91
2023/09/07 05:07:32;;;;;;;18.50;12.20;;;;;;;18.14;100.00;101111.03;179286;1259;60823;-91
2023/09/07 05:11:41;;;;;;;;;;;;;;;18.59;99.87;101108.30;179467;1257;45455;-88
2023/09/07 05:15:51;;;;;;;;;;;;;;;18.97;99.89;101114.76;178427;1260;43861;-88
2023/09/07 05:19:54;;;;;;;;;;;;;;;19.41;98.66;101117.94;178080;1259;45826;-87
2023/09/07 05:23:57;;;;;;;;;;;;;;;19.75;95.28;101122.92;177728;1259;45807;-88
2023/09/07 05:28:00;;;;;;;;;;;;;;;20.15;94.49;101122.31;177766;1260;58040;-88
2023/09/07 05:32:04;;;;;;;;;;;;;;;20.54;93.45;101127.18;178079;1259;43843;-88
2023/09/07 05:36:07;;;;;;;;;;;;;;;20.83;89.72;101130.64;178344;1257;45714;-88
2023/09/07 05:40:11;;;;;;;;;;;;;;;21.02;87.94;101127.88;177938;1260;45899;-88
2023/09/07 05:44:14;;;;;;;;;;;;;;;21.19;87.42;101129.71;177407;1259;45986;-88
2023/09/07 05:48:18;;;;;;;;;;;;;;;21.34;87.26;101128.56;178368;1259;57995;-89
2023/09/07 05:52:21;;;;;;;;;;;;;;;21.44;85.30;101130.30;177611;1259;45946;-88
2023/09/07 05:56:24;;;;;;;;;;;;;;;21.49;85.43;101133.29;178822;1258;45782;-89
2023/09/07 06:00:27;;;;;;;;;;;;;;;21.44;84.67;101136.84;177924;1259;46009;-88
2023/09/07 06:04:31;;;;;;;;;;;;;;;21.46;86.03;101133.92;178634;1259;45843;-88
2023/09/07 06:08:34;;;;;;;;;;;;;;;21.59;86.50;101134.20;177744;1259;58070;-88
2023/09/07 06:12:38;;;;;;;;;;;;;;;21.69;86.67;101138.65;178095;1259;45788;-88
2023/09/07 06:16:41;;;;;;;;;;;;;;;21.66;86.69;101134.70;177794;1259;45862;-88
2023/09/07 06:20:44;;;;;;;;;;;;;;;21.60;88.03;101136.23;177888;1259;45756;-88
2023/09/07 06:24:47;;;;;;;;;;;;;;;21.53;87.32;101138.11;178432;1258;45783;-87
2023/09/07 06:28:50;;;;;;;;;;;;;;;21.43;87.85;101139.61;178326;1258;59715;-87
2023/09/07 06:32:54;;;;;;;;;;;;;;;21.43;89.72;101141.77;178625;1260;45762;-87
2023/09/07 06:37:24;;;;;;;;;;;;;;;21.52;89.59;101143.48;178968;1263;45684;-92
2023/09/07 06:41:28;;;;;;;;;;;;;;;21.60;90.34;101146.38;179429;1257;45760;-91
2023/09/07 06:45:35;;;;;;;;;;;;;;;21.68;90.85;101153.50;179162;1257;45708;-90
2023/09/07 06:49:39;;;;;;;;;;;;;;;21.72;89.58;101157.81;178913;1257;59188;-90
2023/09/07 06:53:45;;;;;;;;;;;;;;;21.86;90.98;101162.21;178760;1257;45669;-90
2023/09/07 06:58:01;;;;;;;;;;;;;;;21.94;88.32;101158.36;179116;1257;45702;-90
2023/09/07 07:02:05;;;;;;;;;;;;;;;22.00;89.52;101161.77;179015;1257;45665;-90
2023/09/07 07:06:11;;;;;;;;;;;;;;;22.17;89.10;101163.23;179056;1257;45919;-91
2023/09/07 07:10:14;;;;;;;;;;;;;;;22.35;88.97;101163.57;179188;1258;57723;-91
2023/09/07 07:14:18;;;;;;;;;;;;;;;22.53;88.38;101162.86;179321;1257;45046;-90
2023/09/07 07:18:22;;;;;;;;;;;;;;;22.72;87.81;101160.11;179140;1257;44918;-90
2023/09/07 07:22:26;;;;;;;;;;;;;;;22.94;88.18;101164.02;179330;1257;45886;-90
2023/09/07 07:26:32;;;;;;;;;;;;;;;22.92;87.14;101165.16;179333;1258;44041;-91
2023/09/07 07:30:36;;;;;;;;;;;;;;;22.99;86.66;101166.84;179326;1258;59625;-90
2023/09/07 07:39:37;;;;;;;;;;;;;;;23.08;84.68;101172.81;176219;1263;45854;-89
2023/09/07 07:43:40;;;;;;;;;;;;;;;23.10;85.33;101179.06;177226;1264;45914;-89
2023/09/07 07:47:44;;;;;;;;;;;;;;;23.21;84.99;101177.34;177098;1264;45820;-89
2023/09/07 07:51:47;;;;;;;;;;;;;;;23.32;83.48;101182.23;177102;1267;59373;-89
2023/09/07 07:55:50;;;;;;;;;;;;;;;23.43;82.77;101175.57;177326;1264;45810;-89
2023/09/07 07:59:54;;;;;;;;;;;;;;;23.58;83.84;101177.00;177377;1263;45795;-90
2023/09/07 08:03:57;;;;;;;;;;;;;;;23.74;81.78;101176.27;177885;1264;45895;-89
2023/09/07 08:08:04;;;;;;;;;;;;;;;23.98;81.44;101173.73;177136;1265;45845;-89
2023/09/07 08:12:08;;;;;;;;;;;;;;;24.06;81.18;101173.52;177381;1263;59416;-90
2023/09/07 08:16:11;;;;;;;;;;;;;;;24.11;78.82;101173.37;177288;1263;45895;-89
2023/09/07 08:20:16;;;;;;;;;;;;;;;24.26;79.50;101172.12;177432;1263;45882;-89
2023/09/07 08:24:20;;;;;;;;;;;;;;;24.42;77.03;101170.98;177477;1264;45953;-90
2023/09/07 08:28:25;;;;;;;;;;;;;;;24.57;77.00;101173.27;177596;1263;45775;-89
2023/09/07 08:32:28;;;;;;;;;;;;;;;24.71;76.62;101169.14;177571;1263;59124;-89
2023/09/07 08:36:34;;;;;;;;;;;;;;;24.99;74.20;101168.98;177539;1263;45904;-90
2023/09/07 08:40:40;;;;;;;;;;;;;;;25.11;72.34;101166.27;177487;1263;45877;-90
2023/09/07 08:44:46;;;;;;;;;;;;;;;25.19;72.33;101169.95;177994;1265;45953;-90
2023/09/07 08:48:50;;;;;;;;;;;;;;;25.24;70.34;101167.42;177562;1264;45896;-90
2023/09/07 08:52:53;;;;;;;;;;;;;;;25.29;70.70;101169.66;177304;1264;58492;-90
2023/09/07 08:56:57;;;;;;;;;;;;;;;25.33;70.16;101164.23;177496;1263;45915;-90
2023/09/07 09:01:01;;;;;;;;;;;;;;;25.42;70.84;101157.62;177250;1265;45944;-89
2023/09/07 09:05:09;;;;;;;;;;;;;;;25.43;70.67;101157.84;177560;1264;45804;-89
2023/09/07 09:09:22;;;;;;;;;;;;;;;25.51;70.41;101158.02;177517;1263;45786;-90
2023/09/07 09:13:31;;;;;;;;;;;;;;;25.55;69.68;101158.50;177579;1266;59344;-90
2023/09/07 09:17:37;;;;;;;;;;;;;;;25.52;68.90;101157.30;177608;1264;45657;-89
2023/09/07 09:21:41;;;;;;;;;;;;;;;25.60;70.19;101155.66;178411;1263;45879;-90
2023/09/07 09:25:44;;;;;;;;;;;;;;;25.65;68.71;101160.40;177432;1263;45855;-89
2023/09/07 09:29:49;;;;;;;;;;;;;;;25.67;66.72;101159.02;177522;1263;46073;-90
2023/09/07 09:33:52;;;;;;;;;;;;;;;25.70;66.77;101152.95;177897;1264;58005;-90
2023/09/07 09:37:56;;;;;;;;;;;;;;;25.78;67.88;101153.40;177491;1264;45825;-90
2023/09/07 09:41:59;;;;;;;;;;;;;;;25.80;66.77;101154.42;177346;1264;311037;-90
2023/09/07 09:46:03;;;;;;;;;;;;;;;25.83;64.47;101157.65;177563;1264;46000;-90
2023/09/07 09:50:11;;;;;;;;;;;;;;;25.86;64.59;101151.45;177595;1264;46022;-91
2023/09/07 09:54:16;;;;;;;;;;;;;;;25.94;64.73;101153.96;177605;1263;59863;-90
2023/09/07 09:58:19;;;;;;;;;;;;;;;26.07;64.60;101141.36;177631;1264;45982;-90
2023/09/07 10:02:22;;;;;;;;;;;;;;;26.19;64.45;101147.07;177580;1265;45963;-90
2023/09/07 10:06:29;;;;;;;;;;;;;;;26.26;63.14;101142.63;177780;1265;45891;-89
2023/09/07 10:10:35;;;;;;;;;;;;;;;26.30;62.69;101141.86;177869;1263;46011;-91
2023/09/07 10:14:45;;;;;;;;;;;;;;;26.30;62.43;101141.33;177756;1264;57713;-89
2023/09/07 10:18:48;;;;;;;;;;;;;;;26.41;62.08;101143.97;177684;1265;45949;-90
2023/09/07 10:23:01;;;;;;;;;;;;;;;26.39;60.92;101139.56;177970;1264;45875;-90
2023/09/07 10:27:05;;;;;;;;;;;;;;;26.43;62.05;101140.65;177913;1267;45726;-89
2023/09/07 10:31:15;;;;;;;;;;;;;;;26.53;61.40;101138.49;177688;1267;45859;-90
2023/09/07 10:35:29;;;;;;;;;;;;;;;26.66;60.72;101134.45;179457;1261;57696;-92
2023/09/07 10:39:38;;;;;;;;;;;;;;;26.70;59.95;101132.18;179622;1261;45765;-91
2023/09/07 10:44:06;;;;;;;;;;;;;;;26.69;58.61;101127.90;179668;1262;44551;-92
2023/09/07 10:48:11;;;;;;;;;;;;;;;26.70;58.80;101126.51;179319;1262;43985;-91
2023/09/07 10:52:16;;;;;;;;;;;;;;;26.70;58.00;101123.95;179035;1263;45752;-91
2023/09/07 10:56:48;;;;;;;;;;;;;;;26.75;59.00;101120.54;179375;1262;59597;-92
2023/09/07 11:00:57;;;;;;;;;;;;;;;26.80;58.18;101119.36;179414;1265;45371;-91
2023/09/07 11:05:22;;;;;;;;;;;;;;;26.90;57.78;101114.52;179643;1262;43819;-92
2023/09/07 11:09:33;;;;;;;;;;;;;;;26.91;57.47;101112.96;179344;1262;45491;-91
2023/09/07 11:13:53;;;;;;;;;;;;;;;27.04;57.29;101114.81;179520;1262;45900;-91
2023/09/07 11:17:59;;;;;;;;;;;;;;;27.10;57.81;101111.60;179439;1261;59121;-91
2023/09/07 11:22:05;;;;;;;;;;;;;;;27.14;57.08;101106.30;179271;1262;45067;-91
2023/09/07 11:26:10;;;;;;;;;;;;;;;27.19;56.49;101110.92;179124;1262;44472;-91
2023/09/07 11:35:07;;;;;;;;;;;;;;;27.28;56.92;101100.26;149678;1254;83270;-63
2023/09/07 11:58:17;;;;;;;;;;;;;;;27.65;55.09;101089.83;180974;1267;42793;-62
2023/09/07 12:02:21;;;;;;;;;;;;;;;27.62;54.84;101088.80;180993;1267;56986;-62
2023/09/07 12:06:24;;;;;;;;;;;;;;;27.67;55.71;101086.49;180977;1267;42924;-62
2023/09/07 12:15:21;;;;;;;;;;;;;;;27.76;56.02;101074.56;180890;1267;42873;-61
2023/09/07 12:19:24;;;;;;;;;;;;;;;27.80;55.34;101075.89;180939;1267;42785;-63
2023/09/07 12:23:27;;;;;;;;;;;;;;;27.92;55.39;101073.61;180998;1267;59034;-62
2023/09/07 12:27:30;;;;;;;;;;;;;;;27.94;55.29;101072.33;180957;1266;43476;-62
2023/09/07 12:31:45;;;;;;;;;;;;;;;27.97;53.83;101069.23;180968;1267;42821;-61
2023/09/07 12:35:48;;;;;;;;;;;;;;;28.04;54.67;101064.42;180936;1267;42886;-62
2023/09/07 12:40:11;;;;;;;;;;;;;;;28.06;55.48;101062.80;180937;1267;43539;-62
2023/09/07 12:44:14;;;;;;;;;;;;;;;28.10;54.08;101061.12;180967;1267;58088;-62
2023/09/07 12:48:17;;;;;;;;;;;;;;;28.17;54.35;101063.56;180977;1267;42813;-62
2023/09/07 12:52:20;;;;;;;;;;;;;;;28.16;55.30;101059.23;180968;1267;43151;-62
2023/09/07 12:56:23;;;;;;;;;;;;;;;28.29;55.09;101052.94;181022;1266;43286;-62
2023/09/07 13:00:26;;;;;;;;;;;;;;;28.41;54.30;101046.09;180990;1266;42795;-62
2023/09/07 13:04:29;;;;;;;;;;;;;;;28.51;54.73;101039.48;181048;1267;59154;-60
2023/09/07 13:08:34;;;;;;;;;;;;;;;28.48;53.96;101034.52;181041;1266;42938;-60
2023/09/07 13:12:38;;;;;;;;;;;;;;;28.47;53.60;101031.11;181058;1266;42808;-60
2023/09/07 13:16:41;;;;;;;;;;;;;;;28.50;53.51;101035.85;180989;1265;42951;-60
2023/09/07 13:20:45;;;;;;;;;;;;;;;28.49;54.41;101032.58;181021;1266;43495;-60
2023/09/07 13:24:48;;;;;;;;;;;;;;;28.51;53.66;101027.38;181001;1266;57966;-60
2023/09/07 13:28:58;;;;;;;;;;;;;;;28.52;53.65;101029.67;181072;1266;42924;-62
2023/09/07 13:33:01;;;;;;;;;;;;;;;28.52;53.37;101031.75;181007;1265;42860;-61
2023/09/07 13:37:04;;;;;;;;;;;;;;;28.45;53.37;101032.46;180978;1266;42935;-61
2023/09/07 13:41:07;;;;;;;;;;;;;;;28.35;53.48;101024.69;181022;1266;42812;-61
2023/09/07 13:45:10;;;;;;;;;;;;;;;28.40;53.40;101023.41;180957;1267;57905;-61
2023/09/07 13:49:13;;;;;;;;;;;;;;;28.35;53.05;101022.21;180983;1267;42766;-61
2023/09/07 13:53:16;;;;;;;;;;;;;;;28.34;53.27;101018.09;180984;1267;42809;-61
2023/09/07 13:57:19;;;;;;;;;;;;;;;28.25;52.93;101015.91;180983;1267;42889;-61
2023/09/07 14:01:24;;;;;;;;;;;;;;;28.32;53.01;101015.84;180987;1266;42850;-61
2023/09/07 14:05:27;;;;;;;;;;;;;;;28.37;52.80;101013.90;180998;1266;58060;-61
2023/09/07 14:09:30;;;;;;;;;;;;;;;28.44;53.59;101008.73;180981;1266;43637;-61
2023/09/07 14:13:35;;;;;;;;;;;;;;;28.50;53.64;101009.91;181019;1266;42898;-61
2023/09/07 14:17:40;;;;;;;;;;;;;;;28.50;52.85;101003.06;181032;1266;43209;-61
2023/09/07 14:21:43;;;;;;;;;;;;;;;28.50;52.31;101003.17;181067;1266;42908;-60
2023/09/07 14:25:47;;;;;;;;;;;;;;;28.50;52.27;101001.54;181035;1266;56871;-60
2023/09/07 14:29:50;;;;;;;;;;;;;;;28.53;52.60;101002.94;180971;1266;43333;-61
2023/09/07 14:33:53;;;;;;;;;;;;;;;28.50;52.55;100997.66;181019;1266;43724;-62
2023/09/07 14:37:56;;;;;;;;;;;;;;;28.54;53.99;100996.83;180978;1266;42862;-61
2023/09/07 14:42:11;;;;;;;;;;;;;;;28.52;52.90;100995.28;180993;1267;42863;-62
2023/09/07 14:46:14;;;;;;;;;;;;;;;28.45;52.32;100993.77;180945;1267;58067;-62
2023/09/07 14:50:17;;;;;;;;;;;;;;;28.50;51.88;100987.58;180935;1267;43248;-61
2023/09/07 14:54:21;;;;;;;;;;;;;;;28.54;51.92;100989.88;181038;1266;42784;-61
2023/09/07 14:58:27;;;;;;;;;;;;;;;28.55;51.86;100992.43;181103;1266;42827;-61
2023/09/07 15:02:30;;;;;;;;;;;;;;;28.56;51.95;100984.80;181069;1266;42818;-61
2023/09/07 15:06:34;;;;;;;;;;;;;;;28.56;51.86;100980.64;180976;1267;57358;-62
2023/09/07 15:10:36;;;;;;;;;;;;;;;28.53;51.88;100978.70;181018;1266;42918;-62
2023/09/07 15:14:49;;;;;;;;;;;;;;;28.49;52.16;100974.86;181051;1266;42883;-62
2023/09/07 15:18:51;;;;;;;;;;;;;;;28.46;52.85;100971.48;180953;1266;45610;-61
2023/09/07 15:23:21;;;;;;;;;;;;;;;28.47;53.20;100972.15;181050;1267;43484;-62
2023/09/07 15:27:24;;;;;;;;;;;;;;;28.41;53.42;100967.55;181000;1267;57838;-62
2023/09/07 15:31:27;;;;;;;;;;;;;;;28.41;53.36;100967.77;180973;1267;42902;-61
2023/09/07 15:35:30;;;;;;;;;;;;;;;28.40;52.88;100966.60;181044;1268;43012;-61
2023/09/07 15:39:33;;;;;;;;;;;;;;;28.42;53.56;100964.42;180975;1267;43788;-61
2023/09/07 15:43:36;;;;;;;;;;;;;;;28.39;52.78;100967.27;180987;1267;42795;-61
2023/09/07 15:47:39;;;;;;;;;;;;;;;28.33;53.31;100961.80;180962;1267;58774;-62
2023/09/07 15:51:42;;;;;;;;;;;;;;;28.25;53.19;100958.67;180948;1267;42870;-62
2023/09/07 15:55:45;;;;;;;;;;;;;;;28.20;53.51;100957.27;181012;1266;43497;-62
2023/09/07 15:59:48;;;;;;;;;;;;;;;28.15;54.41;100955.13;180991;1267;43536;-61
2023/09/07 16:03:50;;;;;;;;;;;;;;;28.07;55.11;100949.96;180998;1266;42803;-62
2023/09/07 16:07:53;;;;;;;;;;;;;;;27.97;56.17;100948.98;180972;1266;57331;-62
2023/09/07 16:11:56;;;;;;;;;;;;;;;27.87;56.69;100951.31;181018;1266;43475;-62
2023/09/07 16:15:59;;;;;;;;;;;;;;;27.77;56.41;100956.91;180993;1267;43556;-62
2023/09/07 16:24:16;;;;;;;;;;;;;;;27.60;57.71;100957.86;166244;1260;86134;-61
2023/09/07 16:28:20;;;;;;;;;;;;;;;27.52;58.16;100961.23;181077;1266;58301;-61
2023/09/07 16:37:12;;;;;;;;;;;;;;;27.32;59.57;100955.48;164194;1264;43502;-61
2023/09/07 16:41:15;;;;;;;;;;;;;;;27.19;60.19;100955.98;181233;1263;42858;-61
2023/09/07 16:45:18;;;;;;;;;;;;;;;27.04;60.73;100962.60;181237;1263;43419;-61
2023/09/07 16:49:21;;;;;;;;;;;;;;;26.90;61.02;100960.50;181253;1263;58237;-61
2023/09/07 16:53:24;;;;;;;;;;;;;;;26.77;61.45;100960.41;181202;1263;43554;-61
2023/09/07 16:57:28;;;;;;;;;;;;;;;26.58;61.48;100958.78;181216;1263;42848;-60
2023/09/07 17:01:31;;;;;;;;;;;;;;;26.42;61.95;100961.83;181252;1263;42837;-61
2023/09/07 17:05:34;;;;;;;;;;;;;;;26.25;62.96;100961.02;181125;1264;43420;-61
2023/09/07 17:14:09;;;;;;;;;;;;;;;25.80;65.48;100962.05;181209;1264;43492;-61
2023/09/07 17:23:25;;;;;;;;;;;;;;;25.33;67.41;100957.14;181205;1263;43484;-61
2023/09/07 17:27:28;;;;;;;;;;;;;;;25.12;67.90;100960.38;181163;1264;42803;-61
2023/09/07 17:31:31;;;;;;;;;;;;;;;24.91;69.13;100963.23;181195;1264;57765;-61
2023/09/07 17:35:36;;;;;;;;;;;;;;;24.65;71.42;100968.09;181221;1264;42848;-60
2023/09/07 17:39:39;;;;;;;;;;;;;;;24.35;71.99;100968.23;181218;1264;43085;-61
2023/09/07 17:43:44;;;;;;;;;;;;;;;24.12;72.81;100968.42;181226;1263;43556;-61
2023/09/07 17:47:47;;;;;;;;;;;;;;;23.88;74.24;100967.44;181231;1263;43675;-63
2023/09/07 17:51:57;;;;;;;;;;;;;;;23.66;75.00;100966.65;181239;1263;57851;-61
2023/09/07 17:56:04;;;;;;;;;;;;;;;23.48;76.53;100968.85;181207;1264;42876;-61
2023/09/07 18:00:20;;;;;;;;;;;;;;;23.34;77.07;100974.42;181212;1264;42858;-60
2023/09/07 18:04:24;;;;;;;;;;;;;;;23.18;76.85;100970.77;181136;1265;43457;-61
2023/09/07 18:08:27;;;;;;;;;;;;;;;23.02;77.03;100978.56;181145;1265;43475;-60
2023/09/07 18:12:30;;;;;;;;;;;;;;;22.87;77.16;100982.41;181237;1264;58013;-61
2023/09/07 18:16:33;;;;;;;;;;;;;;;22.71;77.91;100981.62;181125;1264;42889;-60
2023/09/07 18:20:36;;;;;;;;;;;;;;;22.59;79.34;100989.23;181221;1263;42834;-61
2023/09/07 18:24:39;;;;;;;;;;;;;;;22.47;80.15;100989.02;181129;1264;43705;-61
2023/09/07 18:28:43;;;;;;;;;;;;;;;22.35;81.16;100990.05;181207;1264;42876;-61
2023/09/07 18:32:47;;;;;;;;;;;;;;;22.27;81.37;100988.48;181127;1262;59120;-61
2023/09/07 18:36:50;;;;;;;;;;;;;;;22.17;81.87;100992.08;181123;1264;43641;-60
2023/09/07 18:41:01;;;;;;;;;;;;;;;22.04;82.64;100994.79;181133;1264;42928;-60
2023/09/07 18:45:05;;;;;;;;;;;;;;;21.96;83.28;100996.47;181169;1264;42876;-60
2023/09/07 18:49:08;;;;;;;;;;;;;;;21.89;83.44;100997.44;181115;1263;42924;-61
2023/09/07 18:53:11;;;;;;;;;;;;;;;21.75;84.22;100995.58;181077;1263;57913;-60
2023/09/07 19:01:57;;;;;;;;;;;;;;;21.53;84.53;100992.48;179168;1264;43548;-90
2023/09/07 19:06:02;;;;;;;;;;;;;;;21.45;85.11;100991.17;180753;1263;43755;-90
2023/09/07 19:10:06;;;;;;;;;;;;;;;21.35;85.88;100994.66;180760;1263;43551;-90
2023/09/07 19:14:14;;;;;;;;;;;;;;;21.18;87.64;100997.13;180573;1264;58003;-90
2023/09/07 19:18:18;;;;;;;;;;;;;;;21.05;87.15;100998.25;180732;1265;43896;-90
2023/09/07 19:22:24;;;;;;;;;;;;;;;21.02;86.97;101000.52;180701;1264;44369;-90
2023/09/07 19:26:37;;;;;;;;;;;;;;;21.02;87.19;101001.67;180791;1263;43782;-91
2023/09/07 19:31:13;;;;;;;;;;;;;;;20.98;87.21;101002.48;180806;1264;43650;-91
2023/09/07 19:35:18;;;;;;;;;;;;;;;20.91;87.58;101002.48;180667;1266;60460;-91
2023/09/07 19:39:22;;;;;;;;;;;;;;;20.80;87.97;100998.00;180759;1265;43441;-91
2023/09/07 19:43:25;;;;;;;;;;;;;;;20.68;88.17;100998.30;180792;1265;43692;-90
2023/09/07 19:47:32;;;;;;;;;;;;;;;20.54;88.36;100999.84;180707;1265;43792;-91
2023/09/07 19:51:38;;;;;;;;;;;;;;;20.41;89.15;100998.77;180817;1264;43896;-91
2023/09/07 19:55:42;;;;;;;;;;;;;;;20.27;91.25;100996.67;180921;1264;59268;-91
2023/09/07 19:59:50;;;;;;;;;;;;;;;20.17;91.26;101004.86;180715;1263;43867;-91
2023/09/07 20:03:54;;;;;;;;;;;;;;;20.09;91.93;101003.20;180885;1264;43575;-90
2023/09/07 20:07:58;;;;;;;;;;;;;;;20.01;91.45;101004.45;180580;1265;45577;-90
2023/09/07 20:12:02;;;;;;;;;;;;;;;19.91;92.11;101007.21;180801;1264;43565;-90
2023/09/07 20:16:10;;;;;;;;;;;;;;;19.80;92.31;101006.73;180635;1263;58866;-90
2023/09/07 20:20:16;;;;;;;;;;;;;;;19.70;93.11;101005.86;180658;1264;43527;-90
2023/09/07 20:24:19;;;;;;;;;;;;;;;19.59;93.74;101002.20;180714;1263;43606;-91
2023/09/07 20:28:26;;;;;;;;;;;;;;;19.48;95.60;101004.42;180671;1265;42979;-91
2023/09/07 20:32:33;;;;;;;;;;;;;;;19.40;95.58;101008.35;180715;1268;43656;-90
2023/09/07 20:36:37;;;;;;;;;;;;;;;19.33;95.96;101003.19;180615;1267;59629;-92
2023/09/07 20:40:41;;;;;;;;;;;;;;;19.22;95.87;101001.22;180778;1264;43800;-91
2023/09/07 20:44:45;;;;;;;;;;;;;;;19.16;96.72;100996.18;180778;1264;44039;-92
2023/09/07 20:48:51;;;;;;;;;;;;;;;19.06;96.55;100996.30;180826;1264;43982;-91
2023/09/07 20:52:56;;;;;;;;;;;;;;;19.02;97.52;100997.80;180906;1264;43689;-89
2023/09/07 20:57:01;;;;;;;;;;;;;;;18.97;97.79;100998.30;180811;1264;58082;-91
2023/09/07 21:01:35;;;;;;;;;;;;;;;18.90;98.79;100992.80;180741;1264;43508;-91